createdAt,value
2023-05-06T00:00:14.029Z,100.00
2023-05-06T00:01:13.002Z,100.00
2023-05-06T00:02:13.193Z,100.00
2023-05-06T00:03:13.468Z,100.00
2023-05-06T00:04:13.538Z,100.00
2023-05-06T00:05:13.567Z,100.00
2023-05-06T00:06:13.440Z,100.00
2023-05-06T00:07:13.436Z,100.00
2023-05-06T00:08:13.265Z,100.00
2023-05-06T00:09:13.290Z,100.00
2023-05-06T00:10:13.475Z,100.00
2023-05-06T00:11:13.392Z,100.00
2023-05-06T00:12:13.670Z,100.00
2023-05-06T00:13:13.863Z,100.00
2023-05-06T00:14:13.268Z,100.00
2023-05-06T00:15:13.404Z,100.00
2023-05-06T00:16:13.278Z,100.00
2023-05-06T00:17:13.625Z,100.00
2023-05-06T00:18:13.568Z,100.00
2023-05-06T00:19:13.828Z,100.00
2023-05-06T00:20:13.809Z,100.00
2023-05-06T00:21:13.746Z,100.00
2023-05-06T00:22:13.637Z,100.00
2023-05-06T00:23:13.538Z,100.00
2023-05-06T00:24:13.423Z,100.00
2023-05-06T00:25:13.865Z,100.00
2023-05-06T00:26:13.014Z,100.00
2023-05-06T00:27:13.233Z,100.00
2023-05-06T00:28:13.382Z,100.00
2023-05-06T00:29:13.391Z,100.00
2023-05-06T00:30:13.294Z,100.00
2023-05-06T00:31:13.266Z,100.00
2023-05-06T00:32:13.637Z,100.00
2023-05-06T00:33:13.825Z,100.00
2023-05-06T00:34:13.967Z,100.00
2023-05-06T00:35:12.895Z,100.00
2023-05-06T00:36:13.185Z,100.00
2023-05-06T00:37:13.102Z,100.00
2023-05-06T00:38:13.299Z,100.00
2023-05-06T00:39:13.334Z,100.00
2023-05-06T00:40:13.253Z,100.00
2023-05-06T00:41:13.170Z,100.00
2023-05-06T00:42:13.211Z,100.00
2023-05-06T00:43:13.178Z,100.00
2023-05-06T00:44:13.146Z,100.00
2023-05-06T00:45:13.056Z,100.00
2023-05-06T00:46:13.428Z,100.00
2023-05-06T00:47:13.737Z,100.00
2023-05-06T00:48:13.983Z,100.00
2023-05-06T00:49:12.856Z,100.00
2023-05-06T00:50:13.715Z,100.00
2023-05-06T00:51:14.032Z,100.00
2023-05-06T00:52:14.030Z,100.00
2023-05-06T00:53:13.265Z,100.00
2023-05-06T00:54:13.233Z,100.00
2023-05-06T00:55:13.295Z,100.00
2023-05-06T00:56:13.283Z,100.00
2023-05-06T00:57:13.579Z,100.00
2023-05-06T00:58:13.784Z,100.00
2023-05-06T00:59:13.934Z,100.00
2023-05-06T01:00:12.865Z,100.00
2023-05-06T01:01:13.947Z,100.00
2023-05-06T01:02:13.156Z,100.00
2023-05-06T01:03:13.253Z,100.00
2023-05-06T01:04:13.277Z,100.00
2023-05-06T01:05:13.196Z,100.00
2023-05-06T01:06:13.365Z,100.00
2023-05-06T01:07:13.402Z,100.00
2023-05-06T01:08:13.500Z,100.00
2023-05-06T01:09:13.409Z,100.00
2023-05-06T01:10:13.631Z,100.00
2023-05-06T01:11:15.728Z,100.00
2023-05-06T01:12:12.958Z,100.00
2023-05-06T01:13:12.906Z,100.00
2023-05-06T01:14:12.826Z,100.00
2023-05-06T01:15:13.745Z,100.00
2023-05-06T01:16:13.694Z,100.00
2023-05-06T01:17:13.936Z,100.00
2023-05-06T01:18:12.981Z,100.00
2023-05-06T01:19:12.893Z,100.00
2023-05-06T01:20:12.798Z,100.00
2023-05-06T01:21:14.042Z,100.00
2023-05-06T01:22:13.124Z,100.00
2023-05-06T01:23:13.094Z,100.00
2023-05-06T01:24:12.991Z,100.00
2023-05-06T01:25:12.880Z,100.00
2023-05-06T01:26:13.709Z,100.00
2023-05-06T01:27:13.598Z,100.00
2023-05-06T01:28:13.874Z,100.00
2023-05-06T01:29:13.738Z,100.00
2023-05-06T01:30:13.586Z,100.00
2023-05-06T01:31:13.579Z,100.00
2023-05-06T01:32:13.436Z,100.00
2023-05-06T01:33:13.760Z,100.00
2023-05-06T01:34:13.673Z,100.00
2023-05-06T01:35:13.545Z,100.00
2023-05-06T01:36:13.706Z,100.00
2023-05-06T01:37:13.696Z,100.00
2023-05-06T01:38:13.832Z,100.00
2023-05-06T01:39:13.882Z,100.00
2023-05-06T01:40:13.924Z,100.00
2023-05-06T01:41:12.989Z,100.00
2023-05-06T01:42:12.805Z,100.00
2023-05-06T01:43:14.076Z,100.00
2023-05-06T01:44:13.349Z,100.00
2023-05-06T01:45:13.337Z,100.00
2023-05-06T01:46:13.894Z,100.00
2023-05-06T01:47:12.973Z,100.00
2023-05-06T01:48:13.030Z,100.00
2023-05-06T01:49:12.905Z,100.00
2023-05-06T01:50:12.825Z,100.00
2023-05-06T01:51:13.908Z,100.00
2023-05-06T01:52:13.153Z,100.00
2023-05-06T01:53:13.444Z,100.00
2023-05-06T01:54:13.811Z,100.00
2023-05-06T01:55:13.688Z,100.00
2023-05-06T01:56:14.348Z,100.00
2023-05-06T01:57:13.654Z,100.00
2023-05-06T01:58:14.756Z,100.00
2023-05-06T01:59:14.667Z,100.00
2023-05-06T02:00:14.020Z,100.00
2023-05-06T02:01:13.618Z,100.00
2023-05-06T02:02:14.117Z,100.00
2023-05-06T02:03:13.026Z,100.00
2023-05-06T02:04:13.279Z,100.00
2023-05-06T02:05:13.171Z,100.00
2023-05-06T02:06:18.193Z,100.00
2023-05-06T02:07:13.124Z,100.00
2023-05-06T02:08:12.994Z,100.00
2023-05-06T02:09:12.923Z,100.00
2023-05-06T02:10:12.939Z,100.00
2023-05-06T02:11:13.281Z,100.00
2023-05-06T02:12:13.464Z,100.00
2023-05-06T02:13:13.387Z,100.00
2023-05-06T02:14:13.268Z,100.00
2023-05-06T02:15:13.233Z,100.00
2023-05-06T02:16:13.485Z,100.00
2023-05-06T02:17:13.372Z,100.00
2023-05-06T02:18:13.165Z,100.00
2023-05-06T02:19:13.232Z,100.00
2023-05-06T02:20:13.218Z,100.00
2023-05-06T02:21:13.317Z,100.00
2023-05-06T02:22:13.428Z,100.00
2023-05-06T02:23:13.469Z,100.00
2023-05-06T02:24:13.390Z,100.00
2023-05-06T02:25:13.340Z,100.00
2023-05-06T02:26:13.360Z,100.00
2023-05-06T02:27:13.408Z,100.00
2023-05-06T02:28:13.215Z,100.00
2023-05-06T02:29:13.136Z,100.00
2023-05-06T02:30:13.108Z,100.00
2023-05-06T02:31:13.218Z,100.00
2023-05-06T02:32:13.152Z,100.00
2023-05-06T02:33:18.045Z,100.00
2023-05-06T02:34:13.236Z,100.00
2023-05-06T02:35:13.580Z,100.00
2023-05-06T02:36:13.472Z,100.00
2023-05-06T02:37:13.393Z,100.00
2023-05-06T02:38:13.270Z,100.00
2023-05-06T02:39:13.189Z,100.00
2023-05-06T02:40:13.194Z,100.00
2023-05-06T02:41:13.081Z,100.00
2023-05-06T02:42:13.157Z,100.00
2023-05-06T02:43:13.621Z,100.00
2023-05-06T02:44:14.252Z,100.00
2023-05-06T02:45:13.110Z,100.00
2023-05-06T02:46:13.113Z,100.00
2023-05-06T02:47:14.011Z,100.00
2023-05-06T02:48:12.989Z,100.00
2023-05-06T02:49:12.955Z,100.00
2023-05-06T02:50:12.823Z,100.00
2023-05-06T02:51:14.603Z,100.00
2023-05-06T02:52:13.775Z,100.00
2023-05-06T02:53:14.016Z,100.00
2023-05-06T02:54:12.962Z,100.00
2023-05-06T02:55:13.083Z,100.00
2023-05-06T02:56:13.002Z,100.00
2023-05-06T02:57:13.190Z,100.00
2023-05-06T02:58:13.326Z,100.00
2023-05-06T02:59:13.302Z,100.00
2023-05-06T03:00:13.236Z,100.00
2023-05-06T03:01:13.261Z,100.00
2023-05-06T03:02:13.264Z,100.00
2023-05-06T03:03:13.149Z,100.00
2023-05-06T03:04:13.525Z,100.00
2023-05-06T03:05:13.597Z,100.00
2023-05-06T03:06:13.859Z,100.00
2023-05-06T03:07:13.944Z,100.00
2023-05-06T03:08:12.881Z,100.00
2023-05-06T03:09:14.230Z,100.00
2023-05-06T03:10:13.351Z,100.00
2023-05-06T03:11:13.423Z,100.00
2023-05-06T03:12:13.411Z,100.00
2023-05-06T03:13:13.414Z,100.00
2023-05-06T03:14:13.397Z,100.00
2023-05-06T03:15:13.551Z,100.00
2023-05-06T03:16:13.566Z,100.00
2023-05-06T03:17:13.435Z,100.00
2023-05-06T03:18:14.105Z,100.00
2023-05-06T03:19:13.045Z,100.00
2023-05-06T03:20:13.341Z,100.00
2023-05-06T03:21:13.396Z,100.00
2023-05-06T03:22:14.192Z,100.00
2023-05-06T03:23:13.501Z,100.00
2023-05-06T03:24:13.704Z,100.00
2023-05-06T03:25:13.955Z,100.00
2023-05-06T03:26:13.038Z,100.00
2023-05-06T03:27:13.969Z,100.00
2023-05-06T03:28:13.018Z,100.00
2023-05-06T03:29:18.125Z,100.00
2023-05-06T03:30:13.298Z,100.00
2023-05-06T03:31:15.257Z,100.00
2023-05-06T03:32:13.723Z,100.00
2023-05-06T03:33:13.658Z,100.00
2023-05-06T03:34:13.751Z,100.00
2023-05-06T03:35:13.765Z,100.00
2023-05-06T03:36:14.103Z,100.00
2023-05-06T03:37:13.248Z,100.00
2023-05-06T03:38:13.311Z,100.00
2023-05-06T03:39:13.163Z,100.00
2023-05-06T03:40:13.571Z,100.00
2023-05-06T03:41:13.601Z,100.00
2023-05-06T03:42:13.958Z,100.00
2023-05-06T03:43:13.381Z,100.00
2023-05-06T03:44:13.621Z,100.00
2023-05-06T03:45:13.723Z,100.00
2023-05-06T03:46:13.957Z,100.00
2023-05-06T03:47:13.299Z,100.00
2023-05-06T03:48:13.618Z,100.00
2023-05-06T03:49:13.940Z,100.00
2023-05-06T03:50:12.948Z,100.00
2023-05-06T03:51:12.838Z,100.00
2023-05-06T03:52:13.142Z,100.00
2023-05-06T03:53:13.655Z,100.00
2023-05-06T03:54:13.604Z,100.00
2023-05-06T03:55:13.492Z,100.00
2023-05-06T03:56:13.497Z,100.00
2023-05-06T03:57:13.703Z,100.00
2023-05-06T03:58:13.767Z,100.00
2023-05-06T03:59:13.798Z,100.00
2023-05-06T04:00:13.779Z,100.00
2023-05-06T04:01:14.095Z,100.00
2023-05-06T04:02:13.667Z,100.00
2023-05-06T04:03:14.039Z,100.00
2023-05-06T04:04:13.485Z,100.00
2023-05-06T04:05:13.596Z,100.00
2023-05-06T04:06:13.649Z,100.00
2023-05-06T04:07:13.721Z,100.00
2023-05-06T04:08:13.959Z,100.00
2023-05-06T04:09:12.998Z,100.00
2023-05-06T04:10:12.901Z,100.00
2023-05-06T04:11:12.909Z,100.00
2023-05-06T04:12:13.032Z,100.00
2023-05-06T04:13:13.215Z,100.00
2023-05-06T04:14:13.229Z,100.00
2023-05-06T04:15:13.467Z,100.00
2023-05-06T04:16:15.794Z,100.00
2023-05-06T04:17:12.962Z,100.00
2023-05-06T04:18:12.843Z,100.00
2023-05-06T04:19:12.799Z,100.00
2023-05-06T04:20:13.646Z,100.00
2023-05-06T04:21:13.624Z,100.00
2023-05-06T04:22:13.542Z,100.00
2023-05-06T04:23:13.810Z,100.00
2023-05-06T04:24:12.789Z,100.00
2023-05-06T04:25:13.765Z,100.00
2023-05-06T04:26:13.995Z,100.00
2023-05-06T04:27:12.889Z,100.00
2023-05-06T04:28:13.227Z,100.00
2023-05-06T04:29:13.334Z,100.00
2023-05-06T04:30:13.242Z,100.00
2023-05-06T04:31:13.260Z,100.00
2023-05-06T04:32:13.401Z,100.00
2023-05-06T04:33:13.773Z,100.00
2023-05-06T04:34:13.176Z,100.00
2023-05-06T04:35:13.261Z,100.00
2023-05-06T04:36:13.347Z,100.00
2023-05-06T04:37:13.470Z,100.00
2023-05-06T04:38:13.401Z,100.00
2023-05-06T04:39:13.343Z,100.00
2023-05-06T04:40:13.222Z,100.00
2023-05-06T04:41:13.181Z,100.00
2023-05-06T04:42:13.090Z,100.00
2023-05-06T04:43:13.138Z,100.00
2023-05-06T04:44:13.137Z,100.00
2023-05-06T04:45:13.084Z,100.00
2023-05-06T04:46:13.286Z,100.00
2023-05-06T04:47:13.611Z,100.00
2023-05-06T04:48:13.471Z,100.00
2023-05-06T04:49:13.293Z,100.00
2023-05-06T04:50:13.206Z,100.00
2023-05-06T04:51:13.171Z,100.00
2023-05-06T04:52:14.108Z,100.00
2023-05-06T04:53:14.058Z,100.00
2023-05-06T04:54:13.120Z,100.00
2023-05-06T04:55:13.237Z,100.00
2023-05-06T04:56:13.279Z,100.00
2023-05-06T04:57:13.347Z,100.00
2023-05-06T04:58:18.684Z,100.00
2023-05-06T04:59:13.639Z,100.00
2023-05-06T05:00:14.836Z,100.00
2023-05-06T05:01:13.836Z,100.00
2023-05-06T05:02:13.780Z,100.00
2023-05-06T05:03:13.892Z,100.00
2023-05-06T05:04:13.385Z,100.00
2023-05-06T05:05:13.623Z,100.00
2023-05-06T05:06:13.572Z,100.00
2023-05-06T05:07:13.720Z,100.00
2023-05-06T05:08:13.510Z,100.00
2023-05-06T05:09:13.574Z,100.00
2023-05-06T05:10:13.625Z,100.00
2023-05-06T05:11:13.672Z,100.00
2023-05-06T05:12:13.586Z,100.00
2023-05-06T05:13:13.946Z,100.00
2023-05-06T05:14:13.179Z,100.00
2023-05-06T05:15:13.326Z,100.00
2023-05-06T05:16:13.598Z,100.00
2023-05-06T05:17:14.018Z,100.00
2023-05-06T05:18:13.272Z,100.00
2023-05-06T05:19:13.254Z,100.00
2023-05-06T05:20:13.169Z,100.00
2023-05-06T05:21:13.296Z,100.00
2023-05-06T05:22:13.216Z,100.00
2023-05-06T05:23:48.568Z,100.00
2023-05-06T05:24:13.426Z,100.00
2023-05-06T05:25:13.733Z,100.00
2023-05-06T05:26:12.925Z,100.00
2023-05-06T05:27:12.896Z,100.00
2023-05-06T05:28:13.762Z,100.00
2023-05-06T05:29:13.673Z,100.00
2023-05-06T05:30:13.626Z,100.00
2023-05-06T05:31:14.024Z,100.00
2023-05-06T05:32:13.356Z,100.00
2023-05-06T05:33:13.416Z,100.00
2023-05-06T05:34:13.490Z,100.00
2023-05-06T05:35:13.438Z,100.00
2023-05-06T05:36:13.372Z,100.00
2023-05-06T05:37:13.225Z,100.00
2023-05-06T05:38:13.114Z,100.00
2023-05-06T05:39:13.280Z,100.00
2023-05-06T05:40:13.213Z,100.00
2023-05-06T05:41:15.506Z,100.00
2023-05-06T05:43:01.260Z,100.00
2023-05-06T05:43:13.228Z,100.00
2023-05-06T05:44:13.157Z,100.00
2023-05-06T05:45:14.029Z,100.00
2023-05-06T05:46:13.231Z,100.00
2023-05-06T05:47:13.197Z,100.00
2023-05-06T05:48:13.154Z,100.00
2023-05-06T05:49:13.087Z,100.00
2023-05-06T05:50:13.102Z,100.00
2023-05-06T05:51:12.933Z,100.00
2023-05-06T05:52:12.946Z,100.00
2023-05-06T05:53:13.179Z,100.00
2023-05-06T05:54:13.184Z,100.00
2023-05-06T05:55:18.432Z,100.00
2023-05-06T05:56:13.399Z,100.00
2023-05-06T05:57:13.365Z,100.00
2023-05-06T05:58:13.534Z,100.00
2023-05-06T05:59:13.558Z,100.00
2023-05-06T06:00:13.872Z,100.00
2023-05-06T06:01:12.758Z,100.00
2023-05-06T06:02:14.030Z,100.00
2023-05-06T06:03:13.705Z,100.00
2023-05-06T06:04:14.015Z,100.00
2023-05-06T06:05:13.164Z,100.00
2023-05-06T06:06:13.108Z,100.00
2023-05-06T06:07:13.054Z,100.00
2023-05-06T06:08:13.069Z,100.00
2023-05-06T06:09:13.031Z,100.00
2023-05-06T06:10:12.968Z,100.00
2023-05-06T06:11:13.082Z,100.00
2023-05-06T06:12:13.086Z,100.00
2023-05-06T06:13:13.106Z,100.00
2023-05-06T06:14:13.311Z,100.00
2023-05-06T06:15:13.393Z,100.00
2023-05-06T06:16:13.374Z,100.00
2023-05-06T06:17:13.496Z,100.00
2023-05-06T06:18:13.525Z,100.00
2023-05-06T06:19:13.835Z,100.00
2023-05-06T06:20:13.860Z,100.00
2023-05-06T06:21:13.994Z,100.00
2023-05-06T06:22:13.147Z,100.00
2023-05-06T06:23:13.068Z,100.00
2023-05-06T06:24:12.992Z,100.00
2023-05-06T06:25:12.989Z,100.00
2023-05-06T06:26:13.086Z,100.00
2023-05-06T06:27:20.897Z,100.00
2023-05-06T06:28:12.912Z,100.00
2023-05-06T06:29:12.938Z,100.00
2023-05-06T06:30:13.128Z,100.00
2023-05-06T06:31:13.202Z,100.00
2023-05-06T06:32:13.393Z,100.00
2023-05-06T06:33:13.488Z,100.00
2023-05-06T06:34:13.756Z,100.00
2023-05-06T06:35:13.788Z,100.00
2023-05-06T06:36:13.857Z,100.00
2023-05-06T06:37:13.906Z,100.00
2023-05-06T06:38:12.891Z,100.00
2023-05-06T06:39:13.051Z,100.00
2023-05-06T06:40:13.338Z,100.00
2023-05-06T06:41:13.398Z,100.00
2023-05-06T06:42:13.206Z,100.00
2023-05-06T06:43:13.114Z,100.00
2023-05-06T06:44:12.939Z,100.00
2023-05-06T06:45:13.052Z,100.00
2023-05-06T06:46:13.360Z,100.00
2023-05-06T06:47:13.413Z,100.00
2023-05-06T06:48:13.348Z,100.00
2023-05-06T06:49:13.310Z,100.00
2023-05-06T06:50:13.678Z,100.00
2023-05-06T06:51:13.690Z,100.00
2023-05-06T06:52:13.638Z,100.00
2023-05-06T06:53:13.688Z,100.00
2023-05-06T06:54:13.694Z,100.00
2023-05-06T06:55:13.673Z,100.00
2023-05-06T06:56:13.653Z,100.00
2023-05-06T06:57:13.751Z,100.00
2023-05-06T06:58:13.881Z,100.00
2023-05-06T06:59:12.811Z,100.00
2023-05-06T07:00:14.009Z,100.00
2023-05-06T07:01:12.976Z,100.00
2023-05-06T07:02:12.836Z,100.00
2023-05-06T07:03:13.946Z,100.00
2023-05-06T07:04:13.335Z,100.00
2023-05-06T07:05:13.941Z,100.00
2023-05-06T07:06:13.872Z,100.00
2023-05-06T07:07:13.570Z,100.00
2023-05-06T07:08:14.174Z,100.00
2023-05-06T07:09:13.389Z,100.00
2023-05-06T07:10:14.774Z,100.00
2023-05-06T07:11:14.106Z,100.00
2023-05-06T07:12:13.518Z,100.00
2023-05-06T07:13:14.005Z,100.00
2023-05-06T07:14:13.271Z,100.00
2023-05-06T07:15:18.608Z,100.00
2023-05-06T07:16:13.438Z,100.00
2023-05-06T07:17:13.685Z,100.00
2023-05-06T07:18:13.974Z,100.00
2023-05-06T07:19:18.558Z,100.00
2023-05-06T07:20:13.817Z,100.00
2023-05-06T07:21:15.087Z,100.00
2023-05-06T07:22:14.795Z,100.00
2023-05-06T07:23:19.650Z,100.00
2023-05-06T07:24:15.335Z,100.00
2023-05-06T07:25:13.790Z,100.00
2023-05-06T07:26:14.026Z,100.00
2023-05-06T07:27:18.054Z,100.00
2023-05-06T07:28:13.200Z,100.00
2023-05-06T07:29:13.157Z,100.00
2023-05-06T07:30:13.443Z,100.00
2023-05-06T07:31:13.402Z,100.00
2023-05-06T07:32:13.641Z,100.00
2023-05-06T07:33:13.955Z,100.00
2023-05-06T07:34:12.832Z,100.00
2023-05-06T07:35:18.865Z,100.00
2023-05-06T07:36:16.098Z,100.00
2023-05-06T07:37:13.439Z,100.00
2023-05-06T07:38:13.992Z,100.00
2023-05-06T07:39:14.105Z,100.00
2023-05-06T07:40:18.164Z,100.00
2023-05-06T07:41:13.442Z,100.00
2023-05-06T07:42:13.746Z,100.00
2023-05-06T07:43:13.981Z,100.00
2023-05-06T07:44:13.228Z,100.00
2023-05-06T07:45:13.277Z,100.00
2023-05-06T07:46:13.331Z,100.00
2023-05-06T07:47:13.499Z,100.00
2023-05-06T07:48:13.377Z,100.00
2023-05-06T07:49:13.560Z,100.00
2023-05-06T07:50:13.633Z,100.00
2023-05-06T07:51:13.453Z,100.00
2023-05-06T07:52:13.984Z,100.00
2023-05-06T07:53:13.227Z,100.00
2023-05-06T07:54:13.672Z,100.00
2023-05-06T07:55:13.989Z,100.00
2023-05-06T07:56:13.027Z,100.00
2023-05-06T07:57:12.933Z,100.00
2023-05-06T07:58:13.578Z,100.00
2023-05-06T07:59:13.530Z,100.00
2023-05-06T08:00:13.395Z,100.00
2023-05-06T08:01:13.411Z,100.00
2023-05-06T08:02:13.365Z,100.00
2023-05-06T08:03:13.932Z,100.00
2023-05-06T08:04:13.309Z,100.00
2023-05-06T08:05:13.702Z,100.00
2023-05-06T08:06:13.708Z,100.00
2023-05-06T08:07:13.582Z,100.00
2023-05-06T08:08:13.971Z,100.00
2023-05-06T08:09:19.686Z,100.00
2023-05-06T08:10:13.474Z,100.00
2023-05-06T08:11:13.692Z,100.00
2023-05-06T08:12:13.690Z,100.00
2023-05-06T08:13:18.691Z,100.00
2023-05-06T08:14:13.696Z,100.00
2023-05-06T08:15:13.768Z,100.00
2023-05-06T08:16:19.152Z,100.00
2023-05-06T08:17:13.050Z,100.00
2023-05-06T08:18:21.817Z,100.00
2023-05-06T08:19:13.743Z,100.00
2023-05-06T08:20:13.943Z,100.00
2023-05-06T08:21:13.102Z,100.00
2023-05-06T08:22:13.021Z,100.00
2023-05-06T08:23:13.118Z,100.00
2023-05-06T08:24:13.271Z,100.00
2023-05-06T08:25:13.647Z,100.00
2023-05-06T08:26:13.973Z,100.00
2023-05-06T08:27:13.254Z,100.00
2023-05-06T08:28:13.408Z,100.00
2023-05-06T08:29:13.533Z,100.00
2023-05-06T08:30:13.689Z,100.00
2023-05-06T08:31:14.148Z,100.00
2023-05-06T08:32:13.194Z,100.00
2023-05-06T08:33:13.272Z,100.00
2023-05-06T08:34:13.273Z,100.00
2023-05-06T08:35:13.511Z,100.00
2023-05-06T08:36:13.752Z,100.00
2023-05-06T08:37:13.875Z,100.00
2023-05-06T08:38:12.918Z,100.00
2023-05-06T08:39:13.476Z,100.00
2023-05-06T08:40:13.659Z,100.00
2023-05-06T08:41:13.625Z,100.00
2023-05-06T08:42:13.656Z,100.00
2023-05-06T08:43:13.500Z,100.00
2023-05-06T08:44:13.437Z,100.00
2023-05-06T08:45:13.390Z,100.00
2023-05-06T08:46:13.503Z,100.00
2023-05-06T08:47:13.474Z,100.00
2023-05-06T08:48:13.666Z,100.00
2023-05-06T08:49:14.411Z,100.00
2023-05-06T08:50:18.404Z,100.00
2023-05-06T08:51:14.087Z,100.00
2023-05-06T08:52:13.123Z,100.00
2023-05-06T08:53:13.045Z,100.00
2023-05-06T08:54:13.436Z,100.00
2023-05-06T08:55:14.991Z,100.00
2023-05-06T08:56:12.835Z,100.00
2023-05-06T08:57:13.947Z,100.00
2023-05-06T08:58:12.877Z,100.00
2023-05-06T08:59:13.842Z,100.00
2023-05-06T09:00:13.283Z,100.00
2023-05-06T09:01:13.491Z,100.00
2023-05-06T09:02:17.252Z,100.00
2023-05-06T09:03:13.540Z,100.00
2023-05-06T09:04:13.868Z,100.00
2023-05-06T09:05:14.110Z,100.00
2023-05-06T09:06:13.297Z,100.00
2023-05-06T09:07:13.405Z,100.00
2023-05-06T09:08:13.294Z,100.00
2023-05-06T09:09:13.400Z,100.00
2023-05-06T09:10:13.356Z,100.00
2023-05-06T09:11:13.433Z,100.00
2023-05-06T09:12:13.604Z,100.00
2023-05-06T09:13:13.577Z,100.00
2023-05-06T09:14:13.491Z,100.00
2023-05-06T09:15:13.856Z,100.00
2023-05-06T09:16:13.525Z,100.00
2023-05-06T09:17:13.816Z,100.00
2023-05-06T09:18:13.937Z,100.00
2023-05-06T09:19:12.833Z,100.00
2023-05-06T09:20:13.947Z,100.00
2023-05-06T09:21:13.265Z,100.00
2023-05-06T09:22:13.320Z,100.00
2023-05-06T09:23:13.324Z,100.00
2023-05-06T09:24:13.352Z,100.00
2023-05-06T09:25:13.697Z,100.00
2023-05-06T09:26:13.708Z,100.00
2023-05-06T09:27:15.255Z,100.00
2023-05-06T09:28:13.387Z,100.00
2023-05-06T09:29:13.329Z,100.00
2023-05-06T09:30:13.297Z,100.00
2023-05-06T09:31:13.298Z,100.00
2023-05-06T09:32:13.211Z,100.00
2023-05-06T09:33:13.278Z,100.00
2023-05-06T09:34:13.391Z,100.00
2023-05-06T09:35:13.594Z,100.00
2023-05-06T09:36:13.847Z,100.00
2023-05-06T09:37:13.724Z,100.00
2023-05-06T09:38:13.714Z,100.00
2023-05-06T09:39:13.972Z,100.00
2023-05-06T09:40:13.233Z,100.00
2023-05-06T09:41:13.137Z,100.00
2023-05-06T09:42:13.065Z,100.00
2023-05-06T09:43:13.360Z,88.60
2023-05-06T09:44:13.487Z,87.60
2023-05-06T09:45:13.669Z,83.90
2023-05-06T09:46:13.622Z,81.60
2023-05-06T09:47:13.592Z,77.60
2023-05-06T09:48:13.811Z,80.70
2023-05-06T09:49:14.096Z,82.70
2023-05-06T09:50:13.718Z,81.10
2023-05-06T09:51:14.300Z,83.10
2023-05-06T09:52:13.528Z,89.10
2023-05-06T09:53:13.839Z,93.30
2023-05-06T09:54:13.944Z,86.70
2023-05-06T09:55:13.359Z,94.10
2023-05-06T09:56:14.036Z,84.70
2023-05-06T09:57:13.190Z,89.00
2023-05-06T09:58:13.182Z,92.50
2023-05-06T09:59:13.234Z,93.40
2023-05-06T10:00:13.143Z,100.00
2023-05-06T10:01:15.191Z,100.00
2023-05-06T10:02:13.424Z,100.00
2023-05-06T10:03:13.375Z,100.00
2023-05-06T10:04:13.468Z,100.00
2023-05-06T10:05:14.227Z,99.90
2023-05-06T10:06:13.671Z,95.60
2023-05-06T10:07:13.563Z,89.30
2023-05-06T10:08:13.448Z,97.90
2023-05-06T10:09:13.337Z,88.70
2023-05-06T10:10:13.570Z,80.90
2023-05-06T10:11:13.430Z,88.40
2023-05-06T10:12:13.437Z,78.10
2023-05-06T10:13:13.868Z,86.50
2023-05-06T10:14:13.824Z,85.10
2023-05-06T10:15:13.972Z,88.70
2023-05-06T10:16:15.278Z,84.70
2023-05-06T10:17:13.978Z,78.60
2023-05-06T10:18:12.971Z,77.00
2023-05-06T10:19:13.053Z,72.00
2023-05-06T10:20:12.958Z,69.50
2023-05-06T10:21:13.224Z,75.00
2023-05-06T10:22:13.284Z,84.20
2023-05-06T10:23:13.266Z,88.70
2023-05-06T10:24:13.296Z,86.40
2023-05-06T10:25:13.387Z,80.00
2023-05-06T10:26:13.603Z,76.40
2023-05-06T10:27:13.921Z,77.60
2023-05-06T10:28:24.438Z,78.00
2023-05-06T10:29:13.280Z,67.30
2023-05-06T10:30:13.275Z,67.20
2023-05-06T10:31:13.506Z,62.50
2023-05-06T10:32:13.587Z,63.10
2023-05-06T10:33:13.681Z,63.10
2023-05-06T10:34:13.609Z,67.30
2023-05-06T10:35:13.739Z,71.40
2023-05-06T10:36:13.589Z,70.30
2023-05-06T10:37:13.509Z,72.10
2023-05-06T10:38:14.857Z,73.30
2023-05-06T10:39:13.891Z,83.50
2023-05-06T10:40:12.794Z,81.40
2023-05-06T10:41:13.869Z,84.70
2023-05-06T10:42:13.926Z,77.20
2023-05-06T10:43:13.033Z,80.10
2023-05-06T10:44:12.894Z,81.80
2023-05-06T10:45:13.073Z,81.50
2023-05-06T10:46:13.142Z,80.30
2023-05-06T10:47:13.073Z,79.80
2023-05-06T10:48:13.505Z,79.80
2023-05-06T10:49:13.610Z,79.20
2023-05-06T10:50:13.503Z,77.70
2023-05-06T10:51:13.480Z,72.80
2023-05-06T10:52:13.509Z,73.10
2023-05-06T10:53:13.550Z,74.50
2023-05-06T10:54:13.522Z,75.50
2023-05-06T10:55:13.503Z,74.20
2023-05-06T10:56:13.630Z,70.40
2023-05-06T10:57:13.635Z,68.50
2023-05-06T10:58:13.980Z,66.30
2023-05-06T10:59:13.102Z,65.20
2023-05-06T11:00:13.194Z,69.20
2023-05-06T11:01:13.554Z,68.90
2023-05-06T11:02:13.544Z,68.80
2023-05-06T11:03:13.635Z,69.50
2023-05-06T11:04:13.712Z,66.20
2023-05-06T11:05:13.599Z,58.90
2023-05-06T11:06:13.826Z,56.60
2023-05-06T11:07:13.962Z,51.10
2023-05-06T11:08:13.068Z,53.90
2023-05-06T11:09:13.129Z,56.10
2023-05-06T11:10:13.170Z,57.10
2023-05-06T11:11:13.198Z,56.60
2023-05-06T11:12:13.565Z,62.80
2023-05-06T11:13:13.703Z,68.50
2023-05-06T11:14:13.950Z,63.40
2023-05-06T11:15:12.904Z,65.80
2023-05-06T11:16:12.966Z,66.60
2023-05-06T11:17:12.919Z,66.20
2023-05-06T11:18:13.105Z,68.90
2023-05-06T11:19:13.038Z,68.60
2023-05-06T11:20:12.975Z,69.60
2023-05-06T11:21:12.894Z,72.30
2023-05-06T11:22:12.796Z,69.90
2023-05-06T11:23:13.844Z,72.60
2023-05-06T11:24:13.963Z,74.50
2023-05-06T11:25:12.906Z,77.10
2023-05-06T11:26:13.165Z,74.20
2023-05-06T11:27:13.347Z,75.20
2023-05-06T11:28:13.362Z,78.50
2023-05-06T11:29:13.158Z,78.20
2023-05-06T11:30:13.112Z,79.70
2023-05-06T11:31:13.036Z,81.50
2023-05-06T11:32:13.035Z,83.70
2023-05-06T11:33:13.191Z,83.70
2023-05-06T11:34:13.240Z,82.20
2023-05-06T11:35:13.173Z,76.30
2023-05-06T11:36:13.014Z,71.90
2023-05-06T11:37:12.978Z,69.20
2023-05-06T11:38:13.087Z,67.00
2023-05-06T11:39:13.240Z,70.40
2023-05-06T11:40:13.184Z,69.10
2023-05-06T11:41:13.503Z,64.20
2023-05-06T11:42:13.508Z,62.50
2023-05-06T11:43:13.402Z,63.00
2023-05-06T11:44:13.716Z,55.70
2023-05-06T11:45:13.889Z,52.30
2023-05-06T11:47:13.688Z,53.90
2023-05-06T11:48:13.854Z,52.80
2023-05-06T11:49:13.864Z,52.70
2023-05-06T11:50:13.875Z,54.80
2023-05-06T11:51:12.947Z,55.80
2023-05-06T11:52:13.288Z,55.40
2023-05-06T11:53:13.508Z,55.40
2023-05-06T11:54:13.773Z,53.70
2023-05-06T11:56:13.597Z,55.80
2023-05-06T11:57:13.654Z,54.40
2023-05-06T11:58:13.720Z,47.40
2023-05-06T11:59:13.544Z,45.90
2023-05-06T12:00:13.634Z,43.70
2023-05-06T12:01:13.560Z,45.10
2023-05-06T12:02:13.498Z,45.10
2023-05-06T12:03:13.624Z,47.60
2023-05-06T12:04:13.538Z,43.80
2023-05-06T12:05:13.494Z,44.60
2023-05-06T12:06:13.457Z,48.80
2023-05-06T12:07:13.434Z,50.00
2023-05-06T12:08:26.746Z,49.50
2023-05-06T12:09:13.417Z,49.50
2023-05-06T12:10:13.721Z,51.60
2023-05-06T12:11:12.985Z,53.40
2023-05-06T12:12:12.786Z,52.00
2023-05-06T12:13:13.871Z,52.50
2023-05-06T12:14:13.056Z,54.20
2023-05-06T12:15:13.142Z,49.60
2023-05-06T12:16:56.160Z,44.00
2023-05-06T12:17:13.304Z,43.60
2023-05-06T12:18:13.727Z,43.70
2023-05-06T12:19:13.621Z,45.30
2023-05-06T12:21:13.416Z,42.60
2023-05-06T12:22:13.603Z,43.80
2023-05-06T12:23:13.790Z,43.30
2023-05-06T12:24:14.182Z,48.90
2023-05-06T12:25:13.220Z,47.60
2023-05-06T12:26:13.141Z,45.60
2023-05-06T12:27:13.031Z,46.50
2023-05-06T12:28:12.907Z,46.40
2023-05-06T12:29:13.055Z,42.80
2023-05-06T12:30:13.549Z,40.40
2023-05-06T12:31:13.766Z,43.80
2023-05-06T12:32:14.161Z,42.60
2023-05-06T12:33:13.251Z,40.70
2023-05-06T12:34:13.651Z,41.60
2023-05-06T12:35:13.520Z,41.50
2023-05-06T12:36:13.597Z,42.00